Time;durP1;ratioP1;P1;durP2;ratioP2;P2;SDS_P1;SDS_P2;PMS_P1;PMS_P2;Temp;Humidity;BMP_temperature;BMP_pressure;BME280_temperature;BME280_humidity;BME280_pressure;Samples;Min_cycle;Max_cycle;Signal;HPM_P1;HPM_P2
2022/10/08 00:01:05;;;;;;;31.13;8.27;;;12.60;99.90;;;;;;5103342;28;20082;-68
2022/10/08 00:03:33;;;;;;;33.45;8.50;;;12.60;99.90;;;;;;5101693;28;20055;-68
2022/10/08 00:06:05;;;;;;;21.33;8.00;;;12.70;99.90;;;;;;5099812;28;20827;-68
2022/10/08 00:08:34;;;;;;;17.20;8.27;;;12.70;99.90;;;;;;5073036;28;20054;-68
2022/10/08 00:11:06;;;;;;;20.02;8.90;;;12.80;99.90;;;;;;5093110;28;20101;-68
2022/10/08 00:13:40;;;;;;;18.38;7.05;;;12.80;99.90;;;;;;5094760;28;20036;-68
2022/10/08 00:16:11;;;;;;;25.17;9.02;;;12.90;99.90;;;;;;5104025;28;20106;-68
2022/10/08 00:18:40;;;;;;;17.35;6.93;;;12.80;99.90;;;;;;5105866;28;20055;-68
2022/10/08 00:21:10;;;;;;;24.92;7.30;;;12.90;99.90;;;;;;5106025;28;20131;-68
2022/10/08 00:23:35;;;;;;;26.25;8.43;;;12.80;99.90;;;;;;5106473;28;20063;-67
2022/10/08 00:26:06;;;;;;;19.95;8.25;;;12.80;99.90;;;;;;5105721;28;20410;-67
2022/10/08 00:28:35;;;;;;;39.95;9.70;;;12.90;99.90;;;;;;5107977;28;20039;-68
2022/10/08 00:31:09;;;;;;;22.85;8.52;;;13.00;99.90;;;;;;5103433;28;20043;-68
2022/10/08 00:33:36;;;;;;;19.92;8.57;;;12.90;99.90;;;;;;5112491;28;20518;-68
2022/10/08 00:36:07;;;;;;;18.30;9.05;;;12.90;99.90;;;;;;5111513;28;20096;-68
2022/10/08 00:38:32;;;;;;;34.80;10.85;;;12.90;99.90;;;;;;5109499;28;20409;-68
2022/10/08 00:40:59;;;;;;;30.90;9.82;;;12.90;99.90;;;;;;5107313;28;20047;-68
2022/10/08 00:43:49;;;;;;;32.55;8.68;;;12.90;99.90;;;;;;5105934;28;20043;-68
2022/10/08 00:46:29;;;;;;;22.80;7.65;;;12.90;99.90;;;;;;5101754;28;20051;-68
2022/10/08 00:48:58;;;;;;;19.13;7.97;;;12.80;99.90;;;;;;5102759;28;20113;-68
2022/10/08 00:51:24;;;;;;;34.55;7.95;;;12.80;99.90;;;;;;5108347;28;20511;-67
2022/10/08 00:53:51;;;;;;;24.42;9.35;;;12.80;99.90;;;;;;5103897;28;20075;-66
2022/10/08 00:56:17;;;;;;;22.98;8.77;;;12.70;99.90;;;;;;5102000;28;20119;-67
2022/10/08 00:58:43;;;;;;;29.02;8.30;;;12.70;99.90;;;;;;5108940;28;20047;-67
2022/10/08 01:01:10;;;;;;;19.20;8.82;;;12.70;99.90;;;;;;5102249;28;20427;-67
2022/10/08 01:03:36;;;;;;;24.13;8.50;;;12.70;99.90;;;;;;5110597;28;20385;-67
2022/10/08 01:06:15;;;;;;;25.65;7.78;;;12.70;99.90;;;;;;5090313;28;20050;-67
2022/10/08 01:09:20;;;;;;;22.23;9.40;;;12.60;99.90;;;;;;5090914;28;20085;-67
2022/10/08 01:12:22;;;;;;;22.80;9.00;;;12.70;99.90;;;;;;5083485;28;20082;-67
2022/10/08 01:14:55;;;;;;;31.60;9.50;;;12.60;99.90;;;;;;5095266;28;20040;-67
2022/10/08 01:17:46;;;;;;;26.77;8.27;;;12.60;99.90;;;;;;5097822;28;20378;-66
2022/10/08 01:20:36;;;;;;;16.27;8.70;;;12.70;99.90;;;;;;5103102;28;20055;-66
2022/10/08 01:23:38;;;;;;;25.65;9.85;;;12.50;99.90;;;;;;5109715;28;20062;-66
2022/10/08 01:26:33;;;;;;;23.27;8.48;;;12.60;99.90;;;;;;5109532;28;20496;-66
2022/10/08 01:29:22;;;;;;;29.48;7.97;;;12.60;99.90;;;;;;5109237;28;20048;-66
2022/10/08 01:32:02;;;;;;;20.30;7.95;;;12.60;99.90;;;;;;5105125;28;20722;-66
2022/10/08 01:34:39;;;;;;;21.80;8.43;;;12.50;99.90;;;;;;5101991;28;20047;-66
2022/10/08 01:37:09;;;;;;;14.20;7.38;;;12.60;99.90;;;;;;5107853;28;20074;-66
2022/10/08 01:39:37;;;;;;;19.33;8.30;;;12.50;99.90;;;;;;5097962;28;20051;-67
2022/10/08 01:42:06;;;;;;;15.90;7.18;;;12.60;99.90;;;;;;5108989;28;20097;-67
2022/10/08 01:44:46;;;;;;;23.27;9.15;;;12.50;99.90;;;;;;5108445;28;20067;-67
2022/10/08 01:47:18;;;;;;;23.13;9.70;;;12.60;99.90;;;;;;5106159;28;20047;-66
2022/10/08 01:49:54;;;;;;;20.60;7.78;;;12.50;99.90;;;;;;5107465;28;20079;-65
2022/10/08 01:52:25;;;;;;;27.27;8.48;;;12.50;99.90;;;;;;5103508;28;20054;-65
2022/10/08 01:54:57;;;;;;;16.10;7.78;;;12.50;99.90;;;;;;5109031;28;20127;-65
2022/10/08 01:57:26;;;;;;;21.75;9.40;;;12.50;99.90;;;;;;5106545;28;20048;-65
2022/10/08 02:00:01;;;;;;;13.68;8.00;;;12.60;99.90;;;;;;5105912;28;20052;-65
2022/10/08 02:02:27;;;;;;;25.10;8.55;;;12.50;99.90;;;;;;5109763;28;20040;-65
2022/10/08 02:04:54;;;;;;;22.67;8.77;;;12.60;99.90;;;;;;5102408;28;20048;-66
2022/10/08 02:07:27;;;;;;;27.00;9.68;;;12.40;99.90;;;;;;5105629;28;20091;-65
2022/10/08 02:10:15;;;;;;;22.98;8.75;;;12.50;99.90;;;;;;5100685;28;20058;-65
2022/10/08 02:12:42;;;;;;;27.92;10.32;;;12.50;99.90;;;;;;5100261;28;20063;-65
2022/10/08 02:15:20;;;;;;;22.92;9.80;;;12.40;99.90;;;;;;5100681;28;20063;-66
2022/10/08 02:18:05;;;;;;;22.10;10.38;;;12.50;99.90;;;;;;5108709;28;20146;-65
2022/10/08 02:20:36;;;;;;;26.50;8.77;;;12.40;99.90;;;;;;5097005;28;20108;-65
2022/10/08 02:23:07;;;;;;;23.33;10.82;;;12.40;99.90;;;;;;5109384;28;20039;-65
2022/10/08 02:25:38;;;;;;;11.80;8.43;;;12.40;99.90;;;;;;5109928;28;20455;-65
2022/10/08 02:28:10;;;;;;;25.52;10.43;;;12.30;99.90;;;;;;5103804;28;20047;-65
2022/10/08 02:30:41;;;;;;;19.35;9.60;;;12.30;99.90;;;;;;5106682;28;20051;-65
2022/10/08 02:33:15;;;;;;;16.80;10.32;;;12.30;99.90;;;;;;5089994;28;20469;-65
2022/10/08 02:35:48;;;;;;;23.30;10.95;;;12.30;99.90;;;;;;5089576;28;20036;-65
2022/10/08 02:38:21;;;;;;;26.63;9.95;;;12.30;99.90;;;;;;5109438;28;20451;-65
2022/10/08 02:40:51;;;;;;;22.52;10.30;;;12.30;99.90;;;;;;5107715;28;20058;-66
2022/10/08 02:43:25;;;;;;;23.92;10.27;;;12.30;99.90;;;;;;5108884;28;20404;-65
2022/10/08 02:46:10;;;;;;;22.30;9.52;;;12.30;99.90;;;;;;5102992;28;20043;-65
2022/10/08 02:48:41;;;;;;;17.35;9.35;;;12.20;99.90;;;;;;5108185;28;20039;-65
2022/10/08 02:51:12;;;;;;;28.55;10.95;;;12.10;99.90;;;;;;5102517;28;20101;-66
2022/10/08 02:53:39;;;;;;;19.77;10.38;;;12.10;99.90;;;;;;5106206;28;20108;-66
2022/10/08 02:56:09;;;;;;;25.27;9.93;;;12.10;99.90;;;;;;5109652;28;20055;-65
2022/10/08 02:58:35;;;;;;;21.25;9.57;;;12.10;99.90;;;;;;5109528;28;20124;-65
2022/10/08 03:01:12;;;;;;;26.23;10.48;;;12.00;99.90;;;;;;5096203;28;20075;-66
2022/10/08 03:03:46;;;;;;;20.30;10.18;;;12.00;99.90;;;;;;5098087;28;20051;-66
2022/10/08 03:06:13;;;;;;;19.73;9.85;;;11.90;99.90;;;;;;5109382;28;20042;-65
2022/10/08 03:08:45;;;;;;;21.88;10.15;;;11.90;99.90;;;;;;5109414;28;20035;-65
2022/10/08 03:11:12;;;;;;;14.13;9.25;;;12.00;99.90;;;;;;5097340;28;20461;-66
2022/10/08 03:13:41;;;;;;;18.65;9.02;;;11.90;99.90;;;;;;5107031;28;20031;-65
2022/10/08 03:16:12;;;;;;;15.77;9.40;;;11.90;99.90;;;;;;5105593;28;20044;-65
2022/10/08 03:18:39;;;;;;;24.52;10.52;;;11.90;99.90;;;;;;5103149;28;20047;-65
2022/10/08 03:21:08;;;;;;;22.45;9.02;;;11.80;99.90;;;;;;5097981;28;20086;-65
2022/10/08 03:23:34;;;;;;;13.13;9.52;;;11.90;99.90;;;;;;5104000;28;20126;-65
2022/10/08 03:26:00;;;;;;;17.33;9.48;;;11.80;99.90;;;;;;5105115;28;20586;-65
2022/10/08 03:28:26;;;;;;;22.88;9.52;;;11.80;99.90;;;;;;5108792;28;20092;-65
2022/10/08 03:30:51;;;;;;;18.33;9.68;;;11.70;99.90;;;;;;5095498;28;20038;-65
2022/10/08 03:33:17;;;;;;;20.27;9.18;;;11.70;99.90;;;;;;5088400;28;20070;-65
2022/10/08 03:35:44;;;;;;;32.10;10.82;;;11.70;99.90;;;;;;5093173;28;20048;-65
2022/10/08 03:38:10;;;;;;;24.20;8.60;;;11.60;99.90;;;;;;5091139;28;20043;-65
2022/10/08 03:40:36;;;;;;;15.90;9.00;;;11.60;99.90;;;;;;5095652;28;20039;-65
2022/10/08 03:43:01;;;;;;;12.80;9.90;;;11.50;99.90;;;;;;5091349;28;20112;-65
2022/10/08 03:45:27;;;;;;;14.43;8.77;;;11.50;99.90;;;;;;5095527;28;20074;-65
2022/10/08 03:47:53;;;;;;;24.58;10.10;;;11.50;99.90;;;;;;5104031;28;20057;-67
2022/10/08 03:50:21;;;;;;;21.80;11.05;;;11.50;99.90;;;;;;5100329;28;20028;-67
2022/10/08 03:52:47;;;;;;;22.05;9.30;;;11.40;99.90;;;;;;5108751;28;20048;-67
2022/10/08 03:55:13;;;;;;;21.63;10.32;;;11.40;99.90;;;;;;5107490;28;20078;-67
2022/10/08 03:57:38;;;;;;;22.08;9.73;;;11.40;99.90;;;;;;5107863;28;20039;-68
2022/10/08 04:00:05;;;;;;;14.05;9.30;;;11.40;99.90;;;;;;5103957;28;20036;-67
2022/10/08 04:02:31;;;;;;;15.07;9.25;;;11.40;99.90;;;;;;5101442;28;20797;-66
2022/10/08 04:04:57;;;;;;;21.77;9.43;;;11.40;99.90;;;;;;5104499;28;20051;-66
2022/10/08 04:07:22;;;;;;;23.02;10.23;;;11.30;99.90;;;;;;5103419;28;20107;-67
2022/10/08 04:09:48;;;;;;;15.07;8.48;;;11.30;99.90;;;;;;5092131;28;20047;-66
2022/10/08 04:12:14;;;;;;;22.33;10.55;;;11.30;99.90;;;;;;5107537;28;20035;-67
2022/10/08 04:14:40;;;;;;;20.65;10.50;;;11.20;99.90;;;;;;5105586;28;20404;-67
2022/10/08 04:17:05;;;;;;;17.52;10.60;;;11.30;99.90;;;;;;5096971;28;20052;-68
2022/10/08 04:19:31;;;;;;;17.40;9.75;;;11.20;99.90;;;;;;5098136;28;20064;-68
2022/10/08 04:21:57;;;;;;;14.95;9.13;;;11.20;99.90;;;;;;5102594;28;20177;-67
2022/10/08 04:24:23;;;;;;;26.30;10.45;;;11.20;99.90;;;;;;5088595;28;20115;-67
2022/10/08 04:26:48;;;;;;;16.08;9.50;;;11.20;99.90;;;;;;5107207;28;20047;-67
2022/10/08 04:29:14;;;;;;;20.90;10.55;;;11.20;99.90;;;;;;5107534;28;20385;-67
2022/10/08 04:31:39;;;;;;;17.00;9.48;;;11.20;99.90;;;;;;5102356;28;20043;-67
2022/10/08 04:34:05;;;;;;;22.85;10.02;;;11.20;99.90;;;;;;5106792;28;20089;-67
2022/10/08 04:36:31;;;;;;;25.38;10.48;;;11.10;99.90;;;;;;5094262;28;20047;-67
2022/10/08 04:38:57;;;;;;;22.55;9.88;;;11.10;99.90;;;;;;5106188;28;20092;-67
2022/10/08 04:41:24;;;;;;;19.27;9.07;;;11.20;99.90;;;;;;5099548;28;20038;-66
2022/10/08 04:43:52;;;;;;;17.42;9.55;;;11.20;99.90;;;;;;5107382;28;20480;-67
2022/10/08 04:46:20;;;;;;;18.75;9.05;;;11.10;99.90;;;;;;5101157;28;20040;-66
2022/10/08 04:48:48;;;;;;;20.40;9.15;;;11.10;99.90;;;;;;5097804;28;20606;-67
2022/10/08 04:51:14;;;;;;;16.40;8.75;;;11.20;99.90;;;;;;5102335;28;20531;-67
2022/10/08 04:53:40;;;;;;;15.23;9.98;;;11.10;99.90;;;;;;5105187;28;20036;-67
2022/10/08 04:56:15;;;;;;;18.00;10.43;;;11.10;99.90;;;;;;5102209;28;20163;-67
2022/10/08 04:58:42;;;;;;;22.48;8.65;;;11.10;99.90;;;;;;5090619;28;20048;-67
2022/10/08 05:01:10;;;;;;;18.80;9.77;;;11.10;99.90;;;;;;5106817;28;20036;-67
2022/10/08 05:03:43;;;;;;;13.73;7.70;;;11.00;99.90;;;;;;5105189;28;20076;-66
2022/10/08 05:06:09;;;;;;;18.50;8.55;;;11.00;99.90;;;;;;5101726;28;20047;-67
2022/10/08 05:08:35;;;;;;;21.55;10.05;;;11.00;99.90;;;;;;5105389;28;20051;-67
2022/10/08 05:11:01;;;;;;;15.75;8.07;;;11.00;99.90;;;;;;5103227;28;20051;-66
2022/10/08 05:13:27;;;;;;;23.50;9.10;;;10.90;99.90;;;;;;5087318;28;20182;-66
2022/10/08 05:15:53;;;;;;;14.85;8.10;;;10.90;99.90;;;;;;5096683;28;20237;-67
2022/10/08 05:18:18;;;;;;;22.65;8.60;;;11.00;99.90;;;;;;5090796;28;20112;-66
2022/10/08 05:20:44;;;;;;;23.95;10.10;;;10.90;99.90;;;;;;5103050;28;20063;-66
2022/10/08 05:23:10;;;;;;;14.35;8.75;;;10.90;99.90;;;;;;5106101;28;20121;-66
2022/10/08 05:25:36;;;;;;;20.67;8.32;;;10.90;99.90;;;;;;5107807;28;20044;-66
2022/10/08 05:28:03;;;;;;;12.88;8.20;;;10.90;99.90;;;;;;5111553;28;20062;-67
2022/10/08 05:30:29;;;;;;;20.52;8.40;;;10.90;99.90;;;;;;5103499;28;20040;-66
2022/10/08 05:32:55;;;;;;;19.15;8.38;;;10.90;99.90;;;;;;5110781;28;20051;-66
2022/10/08 05:35:20;;;;;;;30.00;10.02;;;10.90;99.90;;;;;;5110788;28;20044;-66
2022/10/08 05:37:46;;;;;;;18.52;9.13;;;10.90;99.90;;;;;;5106945;28;20161;-67
2022/10/08 05:40:11;;;;;;;22.85;8.77;;;10.80;99.90;;;;;;5105647;28;20164;-66
2022/10/08 05:42:37;;;;;;;15.57;7.35;;;10.80;99.90;;;;;;5105663;28;20047;-67
2022/10/08 05:45:03;;;;;;;15.95;7.47;;;10.80;99.90;;;;;;5103762;28;20040;-67
2022/10/08 05:47:29;;;;;;;18.88;7.32;;;10.80;99.90;;;;;;5111160;28;20051;-67
2022/10/08 05:49:55;;;;;;;15.68;8.13;;;10.80;99.90;;;;;;5108060;28;20381;-67
2022/10/08 05:52:20;;;;;;;20.33;8.43;;;10.80;99.90;;;;;;5106581;28;20165;-67
2022/10/08 05:54:46;;;;;;;14.98;6.30;;;10.80;99.90;;;;;;5104103;28;20105;-67
2022/10/08 05:57:11;;;;;;;15.43;7.38;;;10.80;99.90;;;;;;5104577;28;20158;-67
2022/10/08 05:59:37;;;;;;;14.57;6.55;;;10.80;99.90;;;;;;5107041;28;20043;-67
2022/10/08 06:02:03;;;;;;;18.85;6.35;;;10.80;99.90;;;;;;5104258;28;20039;-67
2022/10/08 06:04:29;;;;;;;27.10;7.15;;;10.80;99.90;;;;;;5107726;28;20483;-67
2022/10/08 06:06:54;;;;;;;19.08;6.57;;;10.80;99.90;;;;;;5107092;28;20504;-67
2022/10/08 06:09:20;;;;;;;16.23;7.05;;;10.70;99.90;;;;;;5100240;28;20083;-66
2022/10/08 06:11:47;;;;;;;19.05;6.40;;;10.70;99.90;;;;;;5092674;28;20500;-67
2022/10/08 06:14:15;;;;;;;20.05;6.15;;;10.70;99.90;;;;;;5091818;28;20520;-67
2022/10/08 06:16:42;;;;;;;20.27;6.85;;;10.70;99.90;;;;;;5094170;28;20040;-67
2022/10/08 06:19:08;;;;;;;18.27;6.45;;;10.70;99.90;;;;;;5091802;28;20066;-67
2022/10/08 06:21:35;;;;;;;20.50;7.32;;;10.80;99.90;;;;;;5093635;28;20040;-66
2022/10/08 06:24:06;;;;;;;20.42;6.93;;;10.80;99.90;;;;;;5090731;28;20044;-66
2022/10/08 06:26:38;;;;;;;22.48;5.95;;;10.80;99.90;;;;;;5090260;28;20094;-68
2022/10/08 06:29:05;;;;;;;10.82;6.18;;;10.80;99.90;;;;;;5087707;28;20044;-66
2022/10/08 06:31:33;;;;;;;22.02;6.78;;;11.00;99.90;;;;;;5088301;28;20472;-66
2022/10/08 06:33:59;;;;;;;25.77;7.82;;;10.90;99.90;;;;;;5093709;28;20039;-67
2022/10/08 06:36:27;;;;;;;16.00;7.93;;;11.10;99.90;;;;;;5095006;28;20044;-66
2022/10/08 06:38:55;;;;;;;14.00;5.95;;;11.20;99.90;;;;;;5096437;28;20115;-67
2022/10/08 06:41:21;;;;;;;14.00;6.45;;;11.30;99.90;;;;;;5090150;28;20040;-67
2022/10/08 06:43:47;;;;;;;22.02;6.75;;;11.20;99.90;;;;;;5094296;28;20044;-67
2022/10/08 06:46:13;;;;;;;17.10;7.00;;;11.40;99.90;;;;;;5090286;28;20481;-67
2022/10/08 06:48:39;;;;;;;17.80;5.63;;;11.40;99.90;;;;;;5098216;28;20038;-67
2022/10/08 06:51:08;;;;;;;22.50;6.80;;;11.50;99.90;;;;;;5091799;28;20027;-67
2022/10/08 06:53:34;;;;;;;13.93;5.63;;;11.40;99.90;;;;;;5093140;28;20071;-67
2022/10/08 06:56:03;;;;;;;15.95;5.90;;;11.60;99.90;;;;;;5094791;28;20036;-67
2022/10/08 06:58:29;;;;;;;22.83;6.88;;;11.50;99.90;;;;;;5091344;28;20065;-67
2022/10/08 07:01:08;;;;;;;18.50;7.15;;;11.50;99.90;;;;;;5095259;28;20036;-67
2022/10/08 07:03:35;;;;;;;18.95;6.82;;;11.60;99.90;;;;;;5104610;28;20060;-67
2022/10/08 07:06:09;;;;;;;22.67;7.93;;;11.50;99.90;;;;;;5101041;28;20085;-67
2022/10/08 07:08:36;;;;;;;19.83;7.70;;;11.60;99.90;;;;;;5107412;28;20052;-67
2022/10/08 07:11:08;;;;;;;19.52;8.80;;;11.50;99.90;;;;;;5092507;28;20036;-67
2022/10/08 07:13:35;;;;;;;23.73;7.45;;;11.40;99.90;;;;;;5092846;28;20816;-67
2022/10/08 07:16:11;;;;;;;20.17;7.85;;;11.40;99.90;;;;;;5102705;27;20055;-66
2022/10/08 07:18:38;;;;;;;26.45;8.48;;;11.50;99.90;;;;;;5108341;28;20043;-66
2022/10/08 07:21:05;;;;;;;20.75;7.78;;;11.50;99.90;;;;;;5097141;28;20047;-67
2022/10/08 07:23:30;;;;;;;18.55;7.68;;;11.60;99.90;;;;;;5102714;28;20044;-67
2022/10/08 07:26:02;;;;;;;14.95;7.15;;;11.60;99.90;;;;;;5108530;28;20062;-67
2022/10/08 07:28:30;;;;;;;16.73;6.93;;;11.60;99.90;;;;;;5099179;28;20050;-67
2022/10/08 07:30:56;;;;;;;;;;;11.60;99.90;;;;;;5103162;28;20047;-67
2022/10/08 07:33:21;;;;;;;30.48;8.20;;;11.60;99.90;;;;;;5094913;28;19926;-67
2022/10/08 07:35:47;;;;;;;22.88;8.30;;;11.70;99.90;;;;;;5093785;28;20032;-67
2022/10/08 07:38:17;;;;;;;14.88;6.90;;;11.70;99.90;;;;;;5090049;28;20036;-66
2022/10/08 07:40:45;;;;;;;17.42;6.32;;;11.70;99.90;;;;;;5090766;28;21177;-67
2022/10/08 07:43:11;;;;;;;24.05;7.90;;;11.80;99.90;;;;;;5092447;28;20048;-67
2022/10/08 07:45:43;;;;;;;35.47;7.78;;;11.80;99.90;;;;;;5092242;28;20072;-67
2022/10/08 07:48:10;;;;;;;16.05;7.60;;;11.90;99.90;;;;;;5090011;28;20401;-67
2022/10/08 07:50:36;;;;;;;15.90;6.18;;;12.00;99.90;;;;;;5103415;28;20031;-67
2022/10/08 07:53:02;;;;;;;23.35;6.97;;;12.00;99.90;;;;;;5102693;28;20770;-67
2022/10/08 07:55:28;;;;;;;16.95;6.70;;;12.10;99.90;;;;;;5108218;28;20095;-68
2022/10/08 07:57:53;;;;;;;21.05;7.30;;;12.10;99.90;;;;;;5107480;28;20088;-67
2022/10/08 08:00:19;;;;;;;28.77;6.43;;;12.10;99.90;;;;;;5099755;28;20434;-67
2022/10/08 08:02:47;;;;;;;26.85;6.28;;;12.20;99.90;;;;;;5092077;28;20107;-67
2022/10/08 08:05:12;;;;;;;12.07;4.75;;;12.20;99.90;;;;;;5097843;28;20127;-67
2022/10/08 08:07:38;;;;;;;16.58;6.78;;;12.20;99.90;;;;;;5104201;28;20512;-68
2022/10/08 08:10:04;;;;;;;15.50;5.47;;;12.20;99.90;;;;;;5094406;28;20050;-68
2022/10/08 08:12:30;;;;;;;25.75;4.97;;;12.20;99.90;;;;;;5105475;28;20077;-67
2022/10/08 08:14:55;;;;;;;12.55;5.50;;;12.20;99.90;;;;;;5099982;28;20039;-67
2022/10/08 08:17:21;;;;;;;34.08;5.93;;;12.20;99.90;;;;;;5103002;28;20500;-67
2022/10/08 08:19:46;;;;;;;19.13;5.13;;;12.30;99.90;;;;;;5109150;28;20066;-67
2022/10/08 08:22:12;;;;;;;19.20;4.95;;;12.30;99.90;;;;;;5096554;28;20051;-67
2022/10/08 08:24:39;;;;;;;11.27;4.35;;;12.40;99.90;;;;;;5101085;28;20092;-68
2022/10/08 08:27:04;;;;;;;11.57;4.32;;;12.40;99.90;;;;;;5094172;28;20509;-67
2022/10/08 08:29:30;;;;;;;22.05;5.97;;;12.50;99.90;;;;;;5100807;28;20055;-67
2022/10/08 08:31:56;;;;;;;11.48;4.30;;;12.50;99.90;;;;;;5106810;28;20130;-67
2022/10/08 08:34:23;;;;;;;25.23;4.90;;;12.60;99.90;;;;;;5107386;28;20075;-67
2022/10/08 08:36:52;;;;;;;13.27;4.07;;;12.70;99.90;;;;;;5093478;28;20052;-67
2022/10/08 08:39:24;;;;;;;16.83;3.60;;;12.80;99.90;;;;;;5106578;28;20085;-68
2022/10/08 08:42:08;;;;;;;11.88;3.78;;;12.90;99.90;;;;;;5107792;28;20051;-68
2022/10/08 08:44:38;;;;;;;17.20;3.70;;;13.00;99.90;;;;;;5101958;28;20049;-67
2022/10/08 08:47:15;;;;;;;11.65;3.58;;;13.10;99.90;;;;;;5092740;28;20040;-67
2022/10/08 08:49:46;;;;;;;22.70;3.65;;;13.20;99.90;;;;;;5090676;28;20060;-68
2022/10/08 08:52:15;;;;;;;10.70;3.80;;;13.30;99.90;;;;;;5099299;28;20075;-68
2022/10/08 08:54:44;;;;;;;11.18;3.72;;;13.40;99.90;;;;;;5116180;27;20044;-68
2022/10/08 08:57:47;;;;;;;16.30;3.97;;;13.60;99.90;;;;;;5101056;28;20051;-67
2022/10/08 09:00:16;;;;;;;16.55;4.47;;;13.80;99.90;;;;;;5091490;28;20397;-68
2022/10/08 09:03:04;;;;;;;13.43;4.03;;;13.90;99.90;;;;;;5091473;28;20130;-67
2022/10/08 09:05:34;;;;;;;18.73;4.47;;;14.10;99.90;;;;;;5111437;27;20118;-68
2022/10/08 09:08:21;;;;;;;13.52;3.92;;;14.30;99.90;;;;;;5110089;28;20400;-68
2022/10/08 09:10:58;;;;;;;15.60;4.10;;;14.50;99.90;;;;;;5109538;28;20104;-69
2022/10/08 09:13:47;;;;;;;13.98;3.97;;;14.60;99.90;;;;;;5096469;28;20059;-67
2022/10/08 09:16:14;;;;;;;22.00;4.03;;;14.60;99.90;;;;;;5092053;28;20048;-67
2022/10/08 09:18:48;;;;;;;19.58;4.13;;;14.80;99.90;;;;;;5092029;28;20396;-67
2022/10/08 09:21:15;;;;;;;15.65;3.30;;;14.90;99.90;;;;;;5108684;27;20055;-67
2022/10/08 09:23:41;;;;;;;16.20;3.03;;;15.10;99.90;;;;;;5103342;28;20097;-67
2022/10/08 09:26:07;;;;;;;10.07;3.72;;;15.30;99.90;;;;;;5106624;28;20054;-67
2022/10/08 09:28:40;;;;;;;11.20;3.03;;;15.40;99.90;;;;;;5101306;28;21251;-67
2022/10/08 09:31:25;;;;;;;11.68;3.38;;;15.40;99.90;;;;;;5090885;28;20044;-67
2022/10/08 09:33:59;;;;;;;17.95;3.83;;;15.70;99.90;;;;;;5097408;28;20262;-68
2022/10/08 09:36:44;;;;;;;19.40;3.83;;;15.70;99.90;;;;;;5099930;28;20044;-67
2022/10/08 09:40:02;;;;;;;13.60;2.67;;;15.80;99.90;;;;;;5103792;28;20382;-67
2022/10/08 09:42:28;;;;;;;13.57;3.67;;;15.70;99.90;;;;;;5096301;28;20158;-67
2022/10/08 09:44:56;;;;;;;10.50;3.05;;;15.90;99.90;;;;;;5102559;27;20135;-67
2022/10/08 09:47:24;;;;;;;6.10;2.90;;;15.70;99.90;;;;;;5109238;28;20052;-67
2022/10/08 09:50:17;;;;;;;9.55;3.47;;;15.80;99.90;;;;;;5109544;28;20040;-67
2022/10/08 09:52:43;;;;;;;14.00;3.65;;;16.10;99.90;;;;;;5100136;28;20058;-67
2022/10/08 09:55:15;;;;;;;14.32;3.20;;;15.80;99.90;;;;;;5096977;28;20074;-67
2022/10/08 09:57:47;;;;;;;10.32;3.20;;;15.90;99.90;;;;;;5108782;28;20031;-67
2022/10/08 10:00:23;;;;;;;10.88;3.60;;;15.90;99.90;;;;;;5110516;28;20143;-67
2022/10/08 10:02:53;;;;;;;8.05;2.45;;;16.00;99.90;;;;;;5109975;28;20061;-67
2022/10/08 10:05:23;;;;;;;8.63;2.03;;;16.20;99.90;;;;;;5110391;28;20083;-67
2022/10/08 10:07:49;;;;;;;14.98;1.95;;;16.30;99.90;;;;;;5092560;28;20052;-67
2022/10/08 10:10:37;;;;;;;8.60;2.83;;;16.30;99.90;;;;;;5099960;28;20043;-67
2022/10/08 10:13:30;;;;;;;5.35;2.13;;;16.40;99.90;;;;;;5108820;28;20036;-66
2022/10/08 10:16:02;;;;;;;4.85;2.13;;;16.60;99.90;;;;;;5110264;28;20828;-67
2022/10/08 10:18:52;;;;;;;14.25;3.25;;;16.60;99.90;;;;;;5110356;27;20055;-66
2022/10/08 10:21:51;;;;;;;10.65;2.60;;;16.60;99.90;;;;;;5106005;28;20056;-67
2022/10/08 10:24:19;;;;;;;13.85;2.45;;;16.60;99.90;;;;;;5090071;28;20101;-67
2022/10/08 10:26:48;;;;;;;17.85;3.92;;;16.30;99.90;;;;;;5106453;28;20048;-67
2022/10/08 10:29:21;;;;;;;7.90;2.28;;;16.20;99.90;;;;;;5100768;28;20040;-67
2022/10/08 10:31:58;;;;;;;9.05;2.83;;;16.10;99.90;;;;;;5109744;28;20043;-67
2022/10/08 10:34:26;;;;;;;13.38;2.55;;;16.20;99.90;;;;;;5109374;28;20047;-67
2022/10/08 10:36:56;;;;;;;13.20;3.20;;;16.20;99.90;;;;;;5104003;28;20607;-67
2022/10/08 10:39:49;;;;;;;25.17;3.67;;;16.50;99.90;;;;;;5108153;28;20047;-67
2022/10/08 10:42:23;;;;;;;9.38;2.70;;;16.60;99.90;;;;;;5092941;28;20036;-67
2022/10/08 10:44:59;;;;;;;10.73;2.50;;;16.70;99.90;;;;;;5109356;28;20055;-67
2022/10/08 10:47:29;;;;;;;8.63;2.53;;;16.80;99.90;;;;;;5104994;28;20105;-67
2022/10/08 10:49:57;;;;;;;15.82;3.05;;;16.90;99.90;;;;;;5109784;27;20043;-67
2022/10/08 10:52:52;;;;;;;12.75;1.92;;;16.90;99.90;;;;;;5108808;28;20424;-67
2022/10/08 10:55:25;;;;;;;10.32;1.77;;;17.00;99.90;;;;;;5108152;28;20097;-68
2022/10/08 10:58:13;;;;;;;26.50;2.80;;;17.20;99.90;;;;;;5108078;28;20047;-68
2022/10/08 11:01:10;;;;;;;20.75;2.60;;;17.30;99.90;;;;;;5106945;28;20408;-68
2022/10/08 11:03:53;;;;;;;12.25;2.28;;;17.50;99.90;;;;;;5108944;28;20046;-68
2022/10/08 11:06:33;;;;;;;11.70;2.65;;;17.90;99.90;;;;;;5108899;28;20051;-69
2022/10/08 11:09:20;;;;;;;6.63;2.28;;;17.90;99.90;;;;;;5107958;28;20046;-69
2022/10/08 11:12:13;;;;;;;11.95;2.42;;;18.10;99.90;;;;;;5096637;28;20044;-72
2022/10/08 11:15:08;;;;;;;8.35;2.28;;;18.00;99.90;;;;;;5106620;28;20079;-69
2022/10/08 11:17:42;;;;;;;5.20;2.30;;;17.90;93.40;;;;;;5099840;28;20421;-69
2022/10/08 11:20:39;;;;;;;7.60;2.30;;;17.70;92.70;;;;;;5099117;28;20138;-70
2022/10/08 11:23:30;;;;;;;9.00;2.07;;;17.70;94.90;;;;;;5098610;28;20124;-70
2022/10/08 11:26:14;;;;;;;14.05;2.35;;;17.80;94.70;;;;;;5095941;28;20039;-71
2022/10/08 11:28:49;;;;;;;11.10;2.90;;;18.00;92.70;;;;;;5106790;28;20055;-71
2022/10/08 11:31:23;;;;;;;9.95;2.78;;;18.10;91.80;;;;;;5107960;28;20157;-71
2022/10/08 11:33:49;;;;;;;9.98;2.22;;;18.10;91.50;;;;;;5107988;28;20080;-71
2022/10/08 11:36:39;;;;;;;5.53;1.80;;;18.20;91.90;;;;;;5100251;28;20521;-71
2022/10/08 11:39:38;;;;;;;3.67;1.63;;;18.20;90.00;;;;;;5098027;28;20102;-71
2022/10/08 11:42:34;;;;;;;4.65;2.08;;;18.10;88.10;;;;;;5102150;28;20057;-71
2022/10/08 11:45:21;;;;;;;4.80;1.83;;;18.10;85.10;;;;;;5102299;28;20058;-71
2022/10/08 11:47:53;;;;;;;7.90;2.00;;;18.20;85.90;;;;;;5089729;28;20096;-71
2022/10/08 11:50:36;;;;;;;8.63;3.33;;;18.30;87.90;;;;;;5107192;28;20043;-71
2022/10/08 11:53:13;;;;;;;9.73;2.88;;;18.20;82.60;;;;;;5106636;28;20526;-71
2022/10/08 11:55:52;;;;;;;7.78;2.60;;;18.30;87.30;;;;;;5092678;28;20047;-71
2022/10/08 11:58:30;;;;;;;13.77;3.30;;;18.40;85.60;;;;;;5096786;28;20040;-72
2022/10/08 12:01:07;;;;;;;11.73;2.63;;;18.60;90.10;;;;;;5099607;28;20067;-71
2022/10/08 12:03:36;;;;;;;8.57;2.38;;;18.70;84.50;;;;;;5107363;28;20056;-71
2022/10/08 12:06:28;;;;;;;13.15;3.45;;;18.70;87.30;;;;;;5097657;28;20114;-71
2022/10/08 12:08:57;;;;;;;13.95;3.08;;;18.80;86.40;;;;;;5101511;28;20055;-71
2022/10/08 12:11:46;;;;;;;7.40;2.30;;;18.80;86.80;;;;;;5102649;28;20040;-71
2022/10/08 12:14:14;;;;;;;13.52;3.10;;;19.00;83.00;;;;;;5094810;28;20044;-71
2022/10/08 12:16:57;;;;;;;7.35;2.42;;;18.90;85.10;;;;;;5099106;28;20074;-71
2022/10/08 12:19:32;;;;;;;7.00;2.25;;;19.00;84.20;;;;;;5101841;28;20143;-72
2022/10/08 12:22:34;;;;;;;12.60;3.40;;;19.10;82.60;;;;;;5087410;28;20074;-71
2022/10/08 12:25:02;;;;;;;15.23;2.53;;;19.00;83.60;;;;;;5072699;28;20058;-71
2022/10/08 12:27:34;;;;;;;10.07;2.30;;;18.80;85.50;;;;;;5103430;28;20472;-71
2022/10/08 12:30:15;;;;;;;12.35;3.08;;;18.80;87.30;;;;;;5107545;28;20040;-71
2022/10/08 12:32:41;;;;;;;13.25;3.17;;;18.80;88.10;;;;;;5092366;28;20043;-71
2022/10/08 12:35:18;;;;;;;23.98;2.70;;;18.90;90.00;;;;;;5091344;28;20052;-71
2022/10/08 12:38:03;;;;;;;7.18;2.85;;;19.10;85.80;;;;;;5082530;28;20406;-71
2022/10/08 12:40:47;;;;;;;19.27;3.00;;;18.90;85.60;;;;;;5101444;28;20048;-71
2022/10/08 12:43:45;;;;;;;6.22;2.22;;;18.90;85.10;;;;;;5107167;28;20050;-72
2022/10/08 12:46:32;;;;;;;10.63;3.03;;;18.90;81.50;;;;;;5111153;28;20130;-72
2022/10/08 12:49:22;;;;;;;19.57;3.10;;;18.90;80.90;;;;;;5109246;28;20051;-72
2022/10/08 12:51:56;;;;;;;14.90;3.25;;;18.90;82.20;;;;;;5104914;28;20365;-72
2022/10/08 12:54:26;;;;;;;8.07;2.20;;;18.90;82.60;;;;;;5106633;28;20059;-71
2022/10/08 12:56:52;;;;;;;15.25;3.08;;;18.90;84.50;;;;;;5085598;28;20055;-71
2022/10/08 12:59:20;;;;;;;5.90;2.53;;;19.00;84.50;;;;;;5109847;28;20059;-71
2022/10/08 13:01:47;;;;;;;16.20;3.50;;;19.10;84.20;;;;;;5112122;28;20712;-71
2022/10/08 13:04:17;;;;;;;5.20;2.70;;;18.90;82.10;;;;;;5111569;28;20043;-71